Time;durP1;ratioP1;P1;durP2;ratioP2;P2;SDS_P1;SDS_P2;PMS_P1;PMS_P2;Temp;Humidity;BMP_temperature;BMP_pressure;BME280_temperature;BME280_humidity;BME280_pressure;Samples;Min_cycle;Max_cycle;Signal;HPM_P1;HPM_P2
2021/03/30 03:20:06;;;;;;;6.40;5.00;;;6.10;99.90;;;;;;800115;23;20902;-94
2021/03/30 03:22:38;;;;;;;6.20;4.80;;;6.00;99.90;;;;;;4963454;28;20513;-96
2021/03/30 03:51:49;;;;;;;7.03;5.77;;;5.70;99.90;;;;;;718183;22;22045;-95
2021/03/30 03:54:27;;;;;;;5.97;5.37;;;5.70;99.90;;;;;;4982015;28;20454;-95
2021/03/30 03:56:59;;;;;;;5.90;5.30;;;5.70;99.90;;;;;;5000388;28;20460;-96
2021/03/30 03:59:31;;;;;;;5.80;5.10;;;5.70;99.90;;;;;;4995060;28;20484;-96
2021/03/30 04:48:28;;;;;;;7.60;5.20;;;5.00;99.90;;;;;;4933137;28;20498;-93
2021/03/30 04:50:54;;;;;;;5.83;5.27;;;4.90;99.90;;;;;;4925085;29;20799;-93
2021/03/30 04:53:20;;;;;;;6.80;5.20;;;4.90;99.90;;;;;;4926448;29;20189;-94
2021/03/30 04:55:46;;;;;;;7.50;6.10;;;4.80;99.90;;;;;;4926016;29;20457;-94
2021/03/30 04:58:11;;;;;;;9.83;5.87;;;4.70;99.90;;;;;;4927247;29;20226;-92
2021/03/30 05:00:37;;;;;;;6.40;5.33;;;4.80;99.90;;;;;;4925410;29;20253;-93
2021/03/30 05:03:03;;;;;;;7.43;6.20;;;4.90;99.90;;;;;;4927679;29;20189;-94
2021/03/30 05:05:29;;;;;;;8.10;7.30;;;4.90;99.90;;;;;;4937275;28;20216;-93
2021/03/30 05:07:54;;;;;;;7.57;6.20;;;4.90;99.90;;;;;;4922072;29;20448;-92
2021/03/30 05:10:20;;;;;;;10.63;5.60;;;4.90;99.90;;;;;;4924022;29;20821;-92
2021/03/30 05:12:46;;;;;;;5.40;5.00;;;4.90;99.90;;;;;;4925185;29;20192;-92
2021/03/30 05:15:12;;;;;;;9.43;5.13;;;4.90;99.90;;;;;;4927343;29;20451;-92
2021/03/30 05:17:38;;;;;;;6.43;4.33;;;4.90;99.90;;;;;;4926119;29;20350;-91
2021/03/30 05:20:05;;;;;;;12.27;6.70;;;4.80;99.90;;;;;;4925067;29;20489;-91
2021/03/30 05:25:12;;;;;;;7.60;5.53;;;4.70;99.90;;;;;;5232917;22;20500;-84
2021/03/30 05:27:38;;;;;;;8.70;5.27;;;4.80;99.90;;;;;;4963366;28;20558;-85
2021/03/30 05:30:10;;;;;;;7.27;4.50;;;4.70;99.90;;;;;;4950791;28;22800;-86
2021/03/30 05:32:36;;;;;;;9.23;4.93;;;4.80;99.90;;;;;;4966191;28;20227;-85
2021/03/30 05:35:04;;;;;;;6.90;4.67;;;4.80;99.90;;;;;;4952416;28;20998;-92
2021/03/30 05:37:29;;;;;;;6.60;5.07;;;4.80;99.90;;;;;;4952714;28;20452;-90
2021/03/30 05:39:55;;;;;;;7.07;4.97;;;4.70;99.90;;;;;;4950974;28;20627;-90
2021/03/30 05:42:21;;;;;;;8.50;5.10;;;4.70;99.90;;;;;;4954609;28;20215;-89
2021/03/30 05:44:57;;;;;;;6.03;4.87;;;4.70;99.90;;;;;;4965915;28;20229;-96
2021/03/30 05:47:28;;;;;;;9.00;5.80;;;4.70;99.90;;;;;;4972720;28;20508;-92
2021/03/30 05:49:54;;;;;;;7.60;5.17;;;4.70;99.90;;;;;;4959106;28;21590;-96
2021/03/30 05:52:54;;;;;;;6.30;5.20;;;4.80;99.90;;;;;;4960058;28;20454;-92
2021/03/30 05:55:43;;;;;;;7.23;5.30;;;4.80;99.90;;;;;;4955700;28;20528;-94
2021/03/30 05:58:12;;;;;;;9.50;5.57;;;4.90;99.90;;;;;;4955168;28;20834;-92
2021/03/30 06:00:52;;;;;;;9.20;4.60;;;5.00;99.90;;;;;;4964356;28;20522;-90
2021/03/30 06:03:33;;;;;;;5.80;5.27;;;5.00;99.90;;;;;;4956887;28;20429;-92
2021/03/30 06:06:00;;;;;;;5.50;4.90;;;5.10;99.90;;;;;;4951386;28;20589;-87
2021/03/30 06:08:30;;;;;;;5.30;4.70;;;5.20;99.90;;;;;;4948919;28;21458;-88
2021/03/30 06:11:02;;;;;;;6.37;5.67;;;5.20;99.90;;;;;;4950761;28;20455;-87
2021/03/30 06:13:48;;;;;;;6.97;5.13;;;5.30;99.90;;;;;;4955472;28;21827;-88
2021/03/30 06:16:32;;;;;;;7.63;5.53;;;5.30;99.90;;;;;;4954764;28;20450;-85
2021/03/30 06:19:08;;;;;;;7.87;5.43;;;5.40;99.90;;;;;;4952228;28;20472;-85
2021/03/30 06:21:53;;;;;;;8.07;6.17;;;5.60;99.90;;;;;;4953506;28;20830;-86
2021/03/30 06:24:24;;;;;;;9.87;5.90;;;5.80;99.90;;;;;;4951227;28;20710;-85
2021/03/30 06:27:17;;;;;;;11.60;6.43;;;6.00;99.90;;;;;;4949491;28;20885;-86
2021/03/30 06:29:43;;;;;;;7.40;6.60;;;6.20;99.90;;;;;;4961887;28;20492;-88
2021/03/30 06:32:12;;;;;;;10.60;6.43;;;6.40;99.90;;;;;;4951764;28;20855;-87
2021/03/30 06:34:43;;;;;;;8.33;7.63;;;6.50;99.90;;;;;;4951001;28;20516;-86
2021/03/30 06:37:27;;;;;;;8.60;7.20;;;6.60;99.90;;;;;;4951613;28;20453;-87
2021/03/30 06:39:55;;;;;;;6.53;5.93;;;6.70;99.90;;;;;;4952604;28;20473;-86
2021/03/30 06:42:41;;;;;;;6.03;5.43;;;6.90;99.90;;;;;;4953122;28;20854;-85
2021/03/30 06:45:21;;;;;;;9.30;6.10;;;6.90;99.90;;;;;;4950615;28;20502;-86
2021/03/30 06:47:57;;;;;;;6.20;5.60;;;7.00;99.90;;;;;;4949401;28;22081;-87
2021/03/30 06:50:37;;;;;;;7.53;6.60;;;7.10;99.90;;;;;;4952896;28;20473;-85
2021/03/30 06:53:17;;;;;;;350.30;287.73;;;7.40;99.90;;;;;;4949442;28;20462;-84
2021/03/30 06:56:01;;;;;;;10.87;7.37;;;7.50;99.90;;;;;;4966970;28;20458;-85
2021/03/30 06:58:26;;;;;;;6.77;6.03;;;7.50;99.90;;;;;;4966104;28;20452;-84
2021/03/30 07:00:52;;;;;;;8.37;6.27;;;7.60;99.90;;;;;;4964782;28;20506;-85
2021/03/30 07:03:20;;;;;;;7.47;5.20;;;7.80;99.90;;;;;;4949362;28;20600;-84
2021/03/30 07:05:48;;;;;;;6.10;5.50;;;7.90;99.90;;;;;;4951534;28;20193;-84
2021/03/30 07:08:16;;;;;;;9.57;7.30;;;7.90;99.90;;;;;;4950026;28;20491;-85
2021/03/30 07:10:43;;;;;;;6.83;6.17;;;8.00;99.90;;;;;;4959741;28;20448;-84
2021/03/30 07:13:10;;;;;;;6.70;5.90;;;8.10;99.90;;;;;;4952533;28;20452;-84
2021/03/30 07:15:36;;;;;;;7.30;6.60;;;8.20;99.90;;;;;;4943307;28;20486;-84
2021/03/30 07:18:17;;;;;;;8.00;6.07;;;8.30;99.90;;;;;;4948177;28;20456;-85
2021/03/30 07:20:46;;;;;;;10.83;6.13;;;8.50;99.90;;;;;;4954606;28;20493;-84
2021/03/30 07:23:20;;;;;;;6.83;5.93;;;8.50;99.90;;;;;;4951957;28;20450;-84
2021/03/30 07:26:05;;;;;;;7.47;5.80;;;8.60;99.90;;;;;;4970014;28;20452;-84
2021/03/30 07:29:04;;;;;;;6.70;6.10;;;8.80;99.90;;;;;;4954078;28;20478;-84
2021/03/30 07:31:52;;;;;;;7.33;5.67;;;9.00;99.90;;;;;;4947740;28;20467;-84
2021/03/30 07:34:27;;;;;;;7.40;6.70;;;9.20;99.90;;;;;;4960675;28;20530;-84
2021/03/30 07:36:59;;;;;;;8.10;6.03;;;9.50;99.90;;;;;;4966599;28;20516;-84
2021/03/30 07:39:31;;;;;;;8.87;6.73;;;9.70;99.90;;;;;;4966055;28;20454;-84
2021/03/30 07:41:57;;;;;;;7.20;6.50;;;9.90;99.90;;;;;;4964514;28;20487;-84
2021/03/30 07:44:24;;;;;;;8.97;6.20;;;10.10;98.90;;;;;;4954808;28;20855;-84
2021/03/30 07:46:51;;;;;;;7.30;5.60;;;10.20;98.30;;;;;;4963445;28;20492;-83
2021/03/30 07:49:17;;;;;;;11.47;6.60;;;10.40;98.60;;;;;;4947392;28;21043;-83
2021/03/30 07:51:47;;;;;;;7.40;5.53;;;10.60;98.40;;;;;;4950365;28;20834;-84
2021/03/30 07:54:20;;;;;;;7.83;5.50;;;10.70;97.80;;;;;;4950950;28;20456;-84
2021/03/30 07:56:46;;;;;;;6.23;5.70;;;10.70;97.80;;;;;;4952905;28;20460;-85
2021/03/30 07:59:48;;;;;;;7.03;6.27;;;10.80;98.40;;;;;;4946037;28;20515;-84
2021/03/30 08:02:27;;;;;;;7.43;5.90;;;11.00;97.60;;;;;;4966956;28;20200;-83
2021/03/30 08:05:03;;;;;;;7.80;6.33;;;11.20;97.30;;;;;;4949005;28;20559;-83
2021/03/30 08:07:54;;;;;;;8.00;6.30;;;11.60;97.10;;;;;;4951084;28;20542;-84
2021/03/30 08:10:25;;;;;;;9.13;5.50;;;11.90;95.70;;;;;;4949705;28;20520;-84
2021/03/30 08:13:25;;;;;;;6.60;6.00;;;12.10;94.10;;;;;;4951540;28;20505;-84
2021/03/30 08:15:54;;;;;;;10.40;5.83;;;12.10;92.70;;;;;;4953274;28;20533;-84
2021/03/30 08:18:22;;;;;;;5.93;5.43;;;12.20;92.80;;;;;;4947689;28;20485;-84
2021/03/30 08:21:01;;;;;;;8.67;5.50;;;12.30;92.70;;;;;;4947499;28;20468;-83
2021/03/30 08:23:29;;;;;;;8.30;5.30;;;12.60;91.50;;;;;;4960601;28;20493;-85
2021/03/30 08:26:20;;;;;;;8.00;5.40;;;12.60;90.90;;;;;;4965378;28;20461;-86
2021/03/30 08:28:49;;;;;;;5.83;5.33;;;12.60;90.50;;;;;;4963583;28;20572;-85
2021/03/30 08:31:39;;;;;;;9.30;5.73;;;12.60;90.60;;;;;;4946504;28;20469;-84
2021/03/30 08:34:12;;;;;;;5.60;5.10;;;12.80;90.60;;;;;;4949925;28;20456;-86
2021/03/30 08:37:06;;;;;;;6.07;5.57;;;13.10;90.10;;;;;;4950050;28;20460;-86
2021/03/30 08:39:34;;;;;;;6.63;4.87;;;13.10;90.40;;;;;;4947193;28;20441;-87
2021/03/30 08:42:09;;;;;;;6.40;5.67;;;13.40;90.00;;;;;;4953440;28;20458;-86
2021/03/30 08:44:38;;;;;;;6.00;5.40;;;13.70;86.80;;;;;;4967977;28;20450;-85
2021/03/30 08:47:04;;;;;;;7.67;6.07;;;13.90;87.00;;;;;;4971677;28;21144;-86
2021/03/30 08:49:43;;;;;;;7.70;6.90;;;14.10;84.70;;;;;;4970072;28;20491;-86
2021/03/30 08:52:11;;;;;;;6.97;6.30;;;14.40;87.40;;;;;;4954424;28;20806;-86
2021/03/30 08:54:53;;;;;;;8.67;6.27;;;14.50;85.80;;;;;;4969090;28;20856;-86
2021/03/30 08:57:34;;;;;;;6.67;5.47;;;14.60;86.30;;;;;;4967432;28;21161;-87
2021/03/30 09:00:01;;;;;;;10.50;6.60;;;14.50;87.20;;;;;;4970432;28;20866;-87
2021/03/30 09:02:28;;;;;;;7.63;5.30;;;14.60;88.40;;;;;;4951404;28;20445;-86
2021/03/30 09:04:55;;;;;;;7.83;6.37;;;14.90;81.10;;;;;;4951645;28;20484;-86
2021/03/30 09:07:21;;;;;;;8.57;6.23;;;15.30;84.10;;;;;;4965530;28;20538;-86
2021/03/30 09:09:48;;;;;;;8.90;7.03;;;15.40;82.30;;;;;;4953628;28;20840;-86
2021/03/30 09:12:17;;;;;;;5.83;5.00;;;15.00;83.00;;;;;;4950514;28;20841;-86
2021/03/30 09:15:01;;;;;;;7.43;5.67;;;15.30;81.50;;;;;;4952240;28;20933;-87
2021/03/30 09:17:28;;;;;;;7.50;5.90;;;15.60;82.70;;;;;;4970085;28;20447;-87
2021/03/30 09:19:54;;;;;;;7.33;5.50;;;15.60;82.10;;;;;;4950610;28;20457;-86
2021/03/30 09:27:28;;;;;;;6.47;5.80;;;16.80;76.70;;;;;;4952343;28;20458;-86
2021/03/30 09:29:56;;;;;;;9.30;6.03;;;17.30;76.90;;;;;;4950899;28;20514;-86
2021/03/30 09:32:24;;;;;;;5.87;4.50;;;17.50;78.80;;;;;;4955352;28;20529;-86
2021/03/30 09:34:52;;;;;;;11.57;5.83;;;17.80;76.50;;;;;;4953932;28;20452;-86
2021/03/30 09:37:18;;;;;;;7.67;5.90;;;17.90;76.00;;;;;;4970060;28;20520;-86
2021/03/30 09:39:44;;;;;;;5.87;5.30;;;17.80;75.60;;;;;;4951778;28;20446;-86
2021/03/30 09:42:11;;;;;;;7.60;4.90;;;18.00;77.10;;;;;;4950931;28;20442;-86
2021/03/30 09:44:45;;;;;;;6.33;5.80;;;18.20;79.80;;;;;;4934530;28;20210;-87
2021/03/30 09:47:12;;;;;;;7.23;5.20;;;18.70;82.70;;;;;;4948379;28;20486;-87
2021/03/30 09:49:40;;;;;;;5.10;4.60;;;19.10;73.30;;;;;;4950420;28;20785;-84
2021/03/30 09:52:07;;;;;;;5.00;4.50;;;19.20;73.00;;;;;;4950369;28;20477;-87
2021/03/30 09:54:42;;;;;;;6.50;4.97;;;19.10;65.80;;;;;;4966185;28;20500;-84
2021/03/30 09:57:16;;;;;;;5.80;5.20;;;19.10;66.30;;;;;;4959457;28;20449;-82
2021/03/30 09:59:50;;;;;;;6.00;4.93;;;19.20;64.90;;;;;;4946739;28;20539;-83
2021/03/30 10:02:32;;;;;;;9.00;5.00;;;19.40;64.80;;;;;;4940026;28;20816;-83
2021/03/30 10:05:00;;;;;;;5.70;5.17;;;19.60;61.80;;;;;;4950362;28;20456;-84
2021/03/30 10:07:36;;;;;;;4.57;4.10;;;19.90;63.50;;;;;;4964680;28;20442;-85
2021/03/30 10:10:17;;;;;;;6.43;5.00;;;19.30;61.40;;;;;;4952595;28;20477;-85
2021/03/30 10:12:54;;;;;;;5.57;4.67;;;19.00;59.40;;;;;;4949883;28;20513;-85
2021/03/30 10:15:43;;;;;;;7.70;5.10;;;19.20;64.40;;;;;;4964909;28;20902;-86
2021/03/30 10:18:10;;;;;;;5.70;5.10;;;19.60;59.90;;;;;;4963346;28;20933;-83
2021/03/30 10:20:52;;;;;;;7.73;4.90;;;19.90;61.90;;;;;;4946536;28;22446;-85
2021/03/30 10:23:25;;;;;;;5.47;4.97;;;20.20;60.40;;;;;;4950097;28;20445;-83
2021/03/30 10:25:52;;;;;;;6.53;5.93;;;20.30;56.90;;;;;;4949471;28;20516;-84
2021/03/30 10:28:30;;;;;;;7.50;6.03;;;20.40;62.10;;;;;;4969096;28;20865;-84
2021/03/30 10:33:40;;;;;;;6.40;4.87;;;21.30;56.60;;;;;;4949531;28;20454;-84
2021/03/30 10:36:09;;;;;;;5.40;4.90;;;21.40;54.40;;;;;;4947544;28;21535;-84
2021/03/30 10:38:38;;;;;;;5.50;4.73;;;21.40;53.40;;;;;;4952157;28;20454;-84
2021/03/30 10:41:09;;;;;;;7.60;5.20;;;21.40;56.70;;;;;;4962695;28;20506;-86
2021/03/30 10:43:35;;;;;;;5.40;4.90;;;21.50;50.50;;;;;;4951805;28;20449;-86
2021/03/30 10:46:16;;;;;;;5.27;4.77;;;21.40;49.00;;;;;;4946287;28;21019;-85
2021/03/30 10:49:04;;;;;;;11.90;5.27;;;21.20;47.90;;;;;;4966345;28;20472;-86
2021/03/30 10:51:32;;;;;;;5.53;4.53;;;21.40;47.90;;;;;;4950339;28;20445;-85
2021/03/30 10:53:59;;;;;;;5.63;5.13;;;21.50;47.30;;;;;;4945185;28;20503;-85
2021/03/30 10:56:25;;;;;;;6.43;5.07;;;21.60;44.60;;;;;;4949846;28;20466;-85
2021/03/30 10:58:51;;;;;;;6.50;4.40;;;22.00;46.30;;;;;;4946855;28;20853;-85
2021/03/30 11:01:17;;;;;;;5.10;4.60;;;22.50;42.40;;;;;;4950736;28;20481;-86
2021/03/30 11:03:42;;;;;;;5.90;5.37;;;22.70;40.70;;;;;;4949295;28;20190;-86
2021/03/30 11:06:08;;;;;;;5.47;4.70;;;22.90;42.50;;;;;;4945852;28;20186;-85
2021/03/30 11:08:34;;;;;;;5.90;5.40;;;23.30;39.40;;;;;;4968343;28;20242;-95
2021/03/30 11:11:00;;;;;;;5.00;4.60;;;23.40;38.30;;;;;;4949012;28;20693;-90
2021/03/30 11:13:26;;;;;;;6.03;5.30;;;23.50;42.70;;;;;;4960571;28;20215;-90
2021/03/30 11:15:51;;;;;;;4.90;4.50;;;23.40;38.00;;;;;;4964467;28;20198;-91
2021/03/30 11:18:20;;;;;;;10.00;5.00;;;23.80;38.70;;;;;;4948065;28;20662;-92
2021/03/30 11:20:45;;;;;;;5.30;4.80;;;24.20;37.50;;;;;;4964608;28;20289;-90
2021/03/30 11:23:11;;;;;;;5.93;5.30;;;24.30;33.90;;;;;;4959583;28;20450;-90
2021/03/30 11:25:38;;;;;;;6.37;5.60;;;24.20;37.00;;;;;;4950898;28;20190;-91
2021/03/30 11:28:07;;;;;;;6.20;5.20;;;24.30;36.60;;;;;;4945616;28;20213;-91
2021/03/30 11:33:24;;;;;;;11.17;6.17;;;24.50;36.30;;;;;;4954870;28;20452;-92
2021/03/30 11:36:01;;;;;;;8.63;6.53;;;24.40;35.10;;;;;;4954258;28;20446;-94
2021/03/30 11:38:27;;;;;;;8.10;6.03;;;24.50;34.40;;;;;;4966319;28;21086;-96
2021/03/30 11:40:53;;;;;;;6.07;5.53;;;25.00;36.30;;;;;;4946306;28;20446;-95
2021/03/30 11:43:19;;;;;;;6.10;5.60;;;25.00;35.50;;;;;;4967846;28;20668;-89
2021/03/30 11:45:51;;;;;;;9.03;5.43;;;25.40;34.60;;;;;;4948736;28;20190;-95
2021/03/30 11:48:31;;;;;;;7.20;5.77;;;25.60;34.90;;;;;;4948563;28;20446;-93
2021/03/30 11:50:57;;;;;;;7.40;5.93;;;25.60;35.50;;;;;;4967402;28;20499;-92
2021/03/30 11:53:23;;;;;;;8.07;5.97;;;24.90;32.10;;;;;;4966186;28;21040;-91
2021/03/30 11:55:49;;;;;;;8.77;5.90;;;24.30;34.50;;;;;;4948769;28;20195;-95
2021/03/30 11:58:14;;;;;;;9.53;5.57;;;24.30;35.40;;;;;;4944476;28;20751;-93
2021/03/30 12:00:41;;;;;;;8.43;6.53;;;24.90;36.10;;;;;;4963395;28;20261;-93
2021/03/30 12:03:27;;;;;;;9.77;6.33;;;24.60;31.80;;;;;;4947824;28;20198;-90
2021/03/30 12:05:52;;;;;;;7.57;4.60;;;24.80;33.40;;;;;;4946176;28;20445;-92
2021/03/30 12:08:18;;;;;;;6.57;5.97;;;25.40;34.50;;;;;;4949225;28;20457;-95
2021/03/30 12:10:44;;;;;;;6.10;5.50;;;25.60;30.70;;;;;;4952601;28;20238;-94
2021/03/30 12:13:10;;;;;;;5.93;5.33;;;25.80;32.40;;;;;;4948075;28;20206;-90
2021/03/30 12:15:35;;;;;;;8.03;5.37;;;26.00;31.10;;;;;;4958907;28;20193;-89
2021/03/30 12:18:01;;;;;;;5.70;5.13;;;26.00;33.20;;;;;;4948292;28;20427;-95
2021/03/30 12:20:27;;;;;;;6.30;5.30;;;26.10;33.80;;;;;;4951759;28;20709;-95
2021/03/30 12:22:52;;;;;;;6.50;5.13;;;26.00;31.70;;;;;;4956163;28;20191;-93
2021/03/30 12:25:18;;;;;;;7.40;4.43;;;25.80;35.50;;;;;;4955698;28;20203;-94
2021/03/30 12:27:44;;;;;;;5.17;4.70;;;26.00;31.20;;;;;;4956300;28;20494;-93
2021/03/30 12:30:10;;;;;;;7.13;5.40;;;26.30;31.20;;;;;;4947369;28;20227;-92
2021/03/30 12:32:54;;;;;;;5.00;4.60;;;26.50;32.30;;;;;;4949810;28;20198;-92
2021/03/30 12:35:27;;;;;;;9.93;6.50;;;27.00;34.20;;;;;;4968576;28;20450;-94
2021/03/30 12:37:53;;;;;;;9.73;5.63;;;27.20;32.90;;;;;;4955117;28;20449;-93
2021/03/30 12:40:19;;;;;;;130.00;23.73;;;26.80;27.70;;;;;;4946662;28;20524;-90
2021/03/30 12:42:45;;;;;;;14.20;7.17;;;26.60;31.60;;;;;;4949293;28;20285;-92
2021/03/30 12:45:11;;;;;;;5.93;5.17;;;26.70;33.50;;;;;;4952132;28;20464;-90
2021/03/30 12:47:37;;;;;;;9.00;6.00;;;26.70;27.90;;;;;;4966385;28;20313;-89
2021/03/30 12:50:04;;;;;;;8.23;5.50;;;26.90;29.80;;;;;;4965168;28;20828;-90
2021/03/30 12:52:30;;;;;;;12.60;6.43;;;27.00;31.70;;;;;;4966312;28;20841;-90
2021/03/30 12:55:03;;;;;;;7.90;4.57;;;26.90;30.00;;;;;;4949844;28;20456;-90
2021/03/30 12:57:29;;;;;;;5.27;4.77;;;26.90;30.80;;;;;;4961343;28;20186;-90
2021/03/30 12:59:54;;;;;;;4.83;4.43;;;27.00;30.50;;;;;;4950516;28;20497;-87
2021/03/30 13:02:20;;;;;;;11.57;5.37;;;26.90;30.70;;;;;;4966604;28;20751;-89
2021/03/30 13:04:46;;;;;;;5.90;5.30;;;26.90;30.90;;;;;;4946907;28;20194;-88
2021/03/30 13:07:12;;;;;;;6.50;4.97;;;26.60;31.20;;;;;;4964589;28;20191;-91
2021/03/30 13:09:39;;;;;;;6.73;5.00;;;26.60;30.70;;;;;;4949641;28;20699;-91
2021/03/30 13:12:06;;;;;;;5.83;5.23;;;26.80;30.90;;;;;;4949126;28;20608;-92
2021/03/30 13:14:36;;;;;;;4.70;4.30;;;27.40;29.10;;;;;;4950258;28;20449;-92
2021/03/30 13:17:06;;;;;;;4.80;3.60;;;27.70;29.70;;;;;;4950390;28;20453;-93
2021/03/30 13:19:34;;;;;;;3.77;3.37;;;27.70;27.80;;;;;;4964993;28;20580;-94
2021/03/30 13:22:00;;;;;;;4.50;3.90;;;27.70;27.20;;;;;;4942207;28;20445;-93
2021/03/30 13:24:36;;;;;;;4.17;3.60;;;27.60;26.50;;;;;;4972933;28;20457;-94
2021/03/30 13:27:07;;;;;;;4.97;3.30;;;27.10;27.50;;;;;;4950004;28;20789;-96
2021/03/30 13:29:38;;;;;;;4.73;3.50;;;27.50;26.60;;;;;;4934057;28;20496;-95
2021/03/30 13:32:06;;;;;;;4.07;3.77;;;28.30;27.10;;;;;;4946410;28;20545;-94
2021/03/30 13:34:32;;;;;;;4.33;3.40;;;28.90;25.80;;;;;;4951443;28;21104;-85
2021/03/30 13:36:58;;;;;;;3.60;3.30;;;28.40;25.70;;;;;;4965008;28;20473;-85
2021/03/30 13:39:24;;;;;;;5.40;3.93;;;28.40;25.80;;;;;;4947654;28;20525;-86
2021/03/30 13:41:53;;;;;;;4.20;3.90;;;27.60;26.40;;;;;;4949736;28;20195;-85
2021/03/30 13:44:19;;;;;;;4.87;4.43;;;27.40;26.30;;;;;;4962103;28;20194;-85
2021/03/30 13:46:46;;;;;;;7.00;3.93;;;27.70;28.30;;;;;;4950866;28;20537;-86
2021/03/30 13:49:11;;;;;;;5.50;4.20;;;27.90;30.00;;;;;;4946830;28;20218;-85
2021/03/30 13:51:37;;;;;;;5.07;4.10;;;28.30;27.80;;;;;;4962907;28;20442;-85
2021/03/30 13:54:06;;;;;;;6.00;5.07;;;28.70;27.20;;;;;;4948610;28;20281;-84
2021/03/30 13:56:32;;;;;;;5.97;5.43;;;29.20;24.90;;;;;;4962178;28;21272;-85
2021/03/30 14:04:27;;;;;;;6.20;4.97;;;29.70;26.20;;;;;;4948964;28;20945;-85
2021/03/30 14:06:54;;;;;;;5.30;4.90;;;28.90;26.20;;;;;;4951099;28;20753;-86
2021/03/30 14:09:23;;;;;;;4.53;4.13;;;27.90;26.90;;;;;;4963887;28;20206;-85
2021/03/30 14:11:54;;;;;;;4.77;4.37;;;27.30;26.70;;;;;;4950213;28;20461;-84
2021/03/30 14:19:46;;;;;;;6.27;5.63;;;28.40;26.80;;;;;;4950516;28;20209;-85
2021/03/30 14:22:22;;;;;;;5.33;4.30;;;30.30;26.10;;;;;;4958244;28;20491;-86
2021/03/30 14:25:07;;;;;;;5.50;5.00;;;31.30;25.20;;;;;;4945695;28;20452;-85
2021/03/30 14:27:35;;;;;;;7.27;4.83;;;31.70;23.10;;;;;;4945150;28;20461;-86
2021/03/30 14:30:01;;;;;;;4.50;4.10;;;31.40;23.20;;;;;;4945036;28;20896;-85
2021/03/30 14:32:30;;;;;;;4.50;4.10;;;30.90;24.00;;;;;;4942983;28;20503;-84
2021/03/30 14:34:58;;;;;;;5.13;4.00;;;32.40;23.40;;;;;;4939672;28;20198;-84
2021/03/30 14:37:25;;;;;;;4.30;4.00;;;33.10;22.80;;;;;;4963475;28;20474;-84
2021/03/30 14:39:53;;;;;;;5.57;4.40;;;31.70;22.80;;;;;;4951989;28;20500;-83
2021/03/30 14:42:21;;;;;;;4.50;4.10;;;30.40;23.10;;;;;;4948478;28;20446;-83
2021/03/30 14:55:23;;;;;;;4.60;4.20;;;28.30;26.00;;;;;;4948506;28;20830;-83
2021/03/30 14:57:59;;;;;;;5.60;3.97;;;29.90;24.80;;;;;;4962293;28;20453;-84
2021/03/30 15:05:38;;;;;;;4.23;3.53;;;31.50;22.60;;;;;;4943883;28;20461;-84
2021/03/30 15:08:05;;;;;;;3.60;3.30;;;32.30;23.30;;;;;;4944495;28;20469;-84
2021/03/30 15:10:31;;;;;;;5.83;3.30;;;32.80;21.40;;;;;;4946339;28;20256;-83
2021/03/30 15:12:57;;;;;;;4.20;3.90;;;34.30;20.90;;;;;;4963523;28;20968;-84
2021/03/30 15:15:27;;;;;;;4.10;3.70;;;34.60;20.50;;;;;;4962519;28;20484;-83
2021/03/30 15:17:54;;;;;;;4.17;3.77;;;34.20;20.70;;;;;;4962440;28;20454;-83
2021/03/30 15:20:22;;;;;;;5.40;3.90;;;34.30;20.90;;;;;;4946447;28;20845;-83
2021/03/30 15:22:47;;;;;;;4.20;3.80;;;32.00;21.80;;;;;;4957590;28;20449;-83
2021/03/30 15:25:13;;;;;;;5.30;4.47;;;29.00;23.40;;;;;;4942950;28;20508;-83
2021/03/30 15:28:17;;;;;;;7.20;4.10;;;27.20;24.70;;;;;;4946818;28;20206;-88
2021/03/30 15:30:42;;;;;;;5.77;4.10;;;25.70;26.30;;;;;;4945925;28;20496;-86
2021/03/30 15:33:08;;;;;;;4.07;3.70;;;25.10;27.00;;;;;;4946271;28;20458;-85
2021/03/30 15:35:34;;;;;;;3.40;3.10;;;24.60;27.80;;;;;;4960881;28;20461;-87
2021/03/30 15:37:59;;;;;;;3.50;3.20;;;24.70;27.80;;;;;;4960460;28;20649;-85
2021/03/30 15:40:25;;;;;;;2.90;2.70;;;25.60;28.20;;;;;;4942768;28;20218;-84
2021/03/30 15:42:51;;;;;;;5.37;3.40;;;27.40;27.80;;;;;;4942172;28;20798;-84
2021/03/30 15:48:04;;;;;;;6.30;3.43;;;33.30;23.30;;;;;;4944272;28;20241;-85
2021/03/30 15:50:31;;;;;;;4.20;3.80;;;35.20;21.00;;;;;;4959096;28;21017;-85
2021/03/30 15:53:20;;;;;;;5.07;4.53;;;36.00;20.00;;;;;;4945800;28;20454;-86
2021/03/30 15:55:46;;;;;;;5.20;3.70;;;36.70;19.80;;;;;;4964207;28;20476;-84
2021/03/30 15:58:11;;;;;;;4.97;3.80;;;36.90;19.00;;;;;;4946373;28;20449;-83
2021/03/30 16:00:37;;;;;;;5.23;3.97;;;36.80;19.80;;;;;;4950615;28;20690;-82
2021/03/30 16:03:03;;;;;;;4.07;3.67;;;36.70;19.30;;;;;;4964792;28;20194;-82
2021/03/30 16:05:29;;;;;;;4.47;4.07;;;36.80;19.40;;;;;;4943064;28;20260;-86
2021/03/30 16:07:56;;;;;;;4.97;4.40;;;36.90;19.70;;;;;;4962373;28;20515;-85
2021/03/30 16:10:25;;;;;;;6.33;5.10;;;36.90;19.00;;;;;;4966573;28;21118;-84
2021/03/30 16:12:50;;;;;;;4.00;3.70;;;37.00;19.10;;;;;;4943413;28;20488;-84
2021/03/30 16:15:17;;;;;;;7.23;4.30;;;37.20;19.10;;;;;;4948677;28;20901;-85
2021/03/30 16:17:43;;;;;;;5.50;4.93;;;37.40;17.90;;;;;;4956935;28;20189;-84
2021/03/30 16:20:10;;;;;;;4.50;4.10;;;36.90;17.60;;;;;;4945175;28;20510;-84
2021/03/30 16:22:37;;;;;;;5.87;4.03;;;33.70;19.40;;;;;;4961926;28;20507;-84
2021/03/30 16:25:04;;;;;;;5.00;4.50;;;30.90;21.80;;;;;;4943969;28;20504;-83
2021/03/30 16:27:30;;;;;;;4.93;4.27;;;29.80;23.00;;;;;;4944651;28;20473;-83
2021/03/30 16:29:56;;;;;;;5.97;4.87;;;29.20;24.00;;;;;;4948272;28;21833;-83
2021/03/30 16:32:24;;;;;;;5.57;5.00;;;30.10;22.80;;;;;;4945092;28;20206;-82
2021/03/30 16:34:50;;;;;;;4.60;4.07;;;31.40;22.60;;;;;;4931369;28;20230;-83
2021/03/30 16:37:17;;;;;;;4.43;4.00;;;32.40;21.80;;;;;;4955555;28;22336;-89
2021/03/30 16:39:44;;;;;;;4.33;3.90;;;32.40;21.80;;;;;;4947430;28;20960;-88
2021/03/30 16:42:12;;;;;;;5.87;4.60;;;30.00;22.80;;;;;;4963954;28;20461;-88
2021/03/30 16:44:39;;;;;;;3.93;3.40;;;27.70;24.70;;;;;;4968283;28;20507;-87
2021/03/30 16:47:07;;;;;;;5.63;4.30;;;26.20;26.40;;;;;;4921186;28;20457;-88
2021/03/30 16:49:41;;;;;;;4.57;4.10;;;25.10;27.90;;;;;;4952859;28;20985;-88
2021/03/30 16:52:09;;;;;;;4.37;3.97;;;24.30;28.90;;;;;;4953667;28;20462;-88
2021/03/30 16:54:36;;;;;;;4.10;3.70;;;23.60;29.50;;;;;;4970552;28;20572;-87
2021/03/30 16:57:03;;;;;;;3.33;3.00;;;23.20;30.00;;;;;;4954152;28;20863;-88
2021/03/30 16:59:29;;;;;;;4.97;3.70;;;23.00;30.60;;;;;;4950382;28;20450;-88
2021/03/30 17:01:55;;;;;;;5.03;3.90;;;22.80;31.10;;;;;;4968369;28;20443;-87
2021/03/30 17:04:22;;;;;;;6.23;4.27;;;22.50;32.10;;;;;;4965742;28;20284;-88
2021/03/30 17:06:47;;;;;;;8.90;3.90;;;22.30;32.50;;;;;;4952369;28;20445;-87
2021/03/30 17:09:13;;;;;;;3.77;3.10;;;22.00;33.40;;;;;;4949373;28;20478;-87
2021/03/30 17:11:39;;;;;;;7.93;3.57;;;21.70;34.20;;;;;;4953566;28;20522;-88
2021/03/30 17:14:05;;;;;;;8.43;4.30;;;21.60;34.70;;;;;;4953126;28;20190;-87
2021/03/30 17:16:31;;;;;;;4.07;3.47;;;21.30;34.90;;;;;;4966068;28;20600;-88
2021/03/30 17:18:57;;;;;;;3.77;3.17;;;21.10;36.20;;;;;;4948908;28;20530;-86
2021/03/30 17:21:23;;;;;;;4.50;2.70;;;20.90;37.50;;;;;;4948679;28;20444;-85
2021/03/30 17:23:49;;;;;;;3.30;2.43;;;20.70;37.80;;;;;;4949188;28;20446;-85
2021/03/30 17:26:16;;;;;;;2.13;1.93;;;20.50;37.60;;;;;;4946396;28;20983;-85
2021/03/30 17:28:41;;;;;;;4.33;2.53;;;20.20;39.00;;;;;;4947523;28;20472;-84
2021/03/30 17:31:07;;;;;;;2.73;2.10;;;20.00;38.80;;;;;;4949761;28;20461;-85
2021/03/30 17:33:34;;;;;;;4.67;2.20;;;19.80;39.00;;;;;;4947158;28;20209;-85
2021/03/30 17:36:00;;;;;;;2.73;2.23;;;19.60;39.40;;;;;;4945607;28;20226;-85
2021/03/30 17:38:27;;;;;;;3.30;2.20;;;19.40;39.40;;;;;;4964368;28;20848;-84
2021/03/30 17:40:58;;;;;;;9.73;4.83;;;19.30;40.50;;;;;;4963283;28;20458;-84
2021/03/30 17:43:24;;;;;;;5.87;3.00;;;19.00;42.50;;;;;;4944584;28;20445;-85
2021/03/30 17:45:51;;;;;;;5.73;3.57;;;18.80;43.10;;;;;;4947232;28;21269;-85
2021/03/30 17:48:22;;;;;;;4.33;2.90;;;18.50;43.80;;;;;;4947167;28;20464;-85
2021/03/30 17:50:48;;;;;;;2.87;2.60;;;18.30;44.30;;;;;;4943513;28;20485;-85
2021/03/30 17:53:15;;;;;;;3.20;2.40;;;18.00;45.40;;;;;;4945969;28;20858;-85
2021/03/30 17:55:44;;;;;;;2.97;2.00;;;17.80;46.10;;;;;;4944408;28;20872;-85
2021/03/30 17:58:10;;;;;;;2.30;2.10;;;17.50;47.10;;;;;;4945153;28;20500;-86
2021/03/30 18:00:37;;;;;;;2.80;2.53;;;17.20;47.00;;;;;;4942947;28;20953;-86
2021/03/30 18:03:04;;;;;;;3.20;2.53;;;17.00;47.70;;;;;;4962361;28;20500;-85
2021/03/30 18:05:30;;;;;;;3.47;2.30;;;16.90;48.00;;;;;;4948882;28;21114;-85
2021/03/30 18:07:55;;;;;;;2.83;2.63;;;16.70;47.40;;;;;;4946168;28;20601;-86
2021/03/30 18:10:21;;;;;;;6.23;4.23;;;16.60;48.60;;;;;;4946455;28;20478;-86
2021/03/30 18:12:47;;;;;;;5.43;2.73;;;16.50;49.00;;;;;;4947466;28;20194;-82
2021/03/30 18:15:15;;;;;;;5.93;4.27;;;16.40;47.80;;;;;;4945026;28;20205;-82
2021/03/30 18:17:43;;;;;;;8.37;5.57;;;16.30;48.50;;;;;;4948305;28;20194;-82